The Hangar Logo

METARs in Plain English
Latest METAR information for EGVN - BRIZE NORTON

EGVN 010550Z 22005KT 9999 FEW010 BKN050 14/13 Q1008 BLU NOSIG

In plain english is....

This is a METAR report for EGVN - BRIZE NORTON .
The report was made 15 minutes ago, at 05:50 UTC.
The wind was blowing at a speed of 5 knots (5.8 miles per hour, 2.6 metres per second) from the Southwest (220°).
The visibility was greater than 6.2 miles (greater than 10 kilometres).
There were a few clouds at a height of 1000 feet (305 metres) and broken clouds at a height of 5000 feet (1524 metres).
The temperature was 14°C (57°F), a dew point of 13°C (55°F) and a relative humidity of 93.7%.
The altimeter setting (airfield QNH) was 1,008 hPa (29.77 inHg).
Other remarks BLU NOSIG.

UK Mainland

Ireland

Channel Islands

France

Other



Enter
Tel: 07092 887559 - Fax: 07092 183262

Content copyright © 1999-2016 TheHangar.co.uk. All rights reserved.
Please send your questions, comments, or bug reports to the Webmaster.